createdAt,value
2023-03-18T00:01:54.220Z,6.70
2023-03-18T00:04:26.187Z,8.80
2023-03-18T00:06:57.312Z,8.60
2023-03-18T00:09:28.336Z,7.67
2023-03-18T00:11:59.484Z,8.00
2023-03-18T00:14:30.133Z,9.80
2023-03-18T00:17:00.491Z,8.27
2023-03-18T00:19:33.786Z,8.40
2023-03-18T00:22:04.395Z,9.10
2023-03-18T00:24:34.873Z,7.37
2023-03-18T00:27:05.998Z,7.93
2023-03-18T00:29:36.377Z,7.73
2023-03-18T00:32:06.235Z,7.97
2023-03-18T00:34:37.618Z,9.00
2023-03-18T00:37:08.618Z,8.40
2023-03-18T00:39:38.939Z,7.73
2023-03-18T00:42:11.126Z,7.73
2023-03-18T00:44:41.533Z,6.73
2023-03-18T00:47:11.762Z,7.10
2023-03-18T00:49:43.917Z,6.87
2023-03-18T00:52:15.631Z,6.73
2023-03-18T00:54:46.206Z,6.73
2023-03-18T00:57:16.391Z,6.73
2023-03-18T00:59:49.174Z,7.90
2023-03-18T01:02:19.300Z,6.90
2023-03-18T01:04:51.975Z,8.23
2023-03-18T01:07:22.641Z,7.70
2023-03-18T01:09:52.452Z,7.10
2023-03-18T01:12:23.073Z,6.33
2023-03-18T01:14:52.738Z,6.70
2023-03-18T01:17:22.980Z,7.57
2023-03-18T01:19:55.521Z,6.23
2023-03-18T01:22:25.845Z,6.87
2023-03-18T01:24:56.026Z,7.27
2023-03-18T01:27:25.974Z,6.23
2023-03-18T01:29:56.178Z,6.70
2023-03-18T01:32:26.299Z,7.13
2023-03-18T01:34:58.419Z,6.90
2023-03-18T01:37:29.309Z,7.30
2023-03-18T01:40:01.075Z,6.40
2023-03-18T01:42:32.121Z,6.97
2023-03-18T01:45:29.064Z,6.67
2023-03-18T01:47:59.787Z,6.60
2023-03-18T01:50:34.601Z,7.00
2023-03-18T01:53:07.071Z,7.00
2023-03-18T01:55:40.166Z,5.73
2023-03-18T01:58:14.859Z,6.50
2023-03-18T02:00:51.824Z,6.60
2023-03-18T02:03:22.540Z,7.17
2023-03-18T02:05:54.219Z,6.97
2023-03-18T02:08:24.818Z,6.10
2023-03-18T02:10:56.627Z,6.83
2023-03-18T02:13:28.623Z,5.90
2023-03-18T02:16:03.807Z,6.77
2023-03-18T02:18:39.680Z,6.20
2023-03-18T02:21:23.109Z,6.30
2023-03-18T02:24:00.170Z,6.67
2023-03-18T02:26:38.509Z,7.77
2023-03-18T02:29:10.606Z,6.90
2023-03-18T02:31:42.631Z,6.53
2023-03-18T02:34:15.068Z,5.90
2023-03-18T02:36:45.140Z,6.90
2023-03-18T02:39:17.036Z,6.07
2023-03-18T02:41:47.577Z,6.77
2023-03-18T02:44:21.154Z,7.90
2023-03-18T02:46:57.018Z,5.37
2023-03-18T02:49:29.334Z,8.00
2023-03-18T02:52:00.413Z,7.20
2023-03-18T02:54:33.178Z,6.50
2023-03-18T02:57:04.356Z,6.87
2023-03-18T02:59:36.730Z,7.10
2023-03-18T03:02:07.416Z,7.73
2023-03-18T03:04:37.799Z,7.43
2023-03-18T03:07:08.491Z,7.10
2023-03-18T03:09:38.864Z,6.00
2023-03-18T03:12:09.439Z,6.43
2023-03-18T03:14:41.720Z,6.53
2023-03-18T03:17:12.346Z,7.60
2023-03-18T03:19:42.917Z,5.83
2023-03-18T03:22:13.799Z,6.80
2023-03-18T03:24:45.444Z,7.60
2023-03-18T03:27:15.235Z,6.53
2023-03-18T03:29:48.302Z,6.53
2023-03-18T03:32:18.697Z,6.10
2023-03-18T03:34:49.532Z,6.70
2023-03-18T03:37:19.611Z,7.20
2023-03-18T03:39:51.482Z,6.70
2023-03-18T03:42:21.280Z,6.77
2023-03-18T03:44:52.811Z,6.90
2023-03-18T03:47:22.986Z,7.73
2023-03-18T03:49:54.901Z,6.93
2023-03-18T03:52:24.821Z,6.53
2023-03-18T03:54:56.770Z,7.00
2023-03-18T03:57:27.679Z,7.30
2023-03-18T03:59:59.876Z,6.77
2023-03-18T04:02:30.171Z,6.77
2023-03-18T04:05:00.803Z,6.30
2023-03-18T04:07:32.695Z,6.13
2023-03-18T04:10:03.583Z,7.00
2023-03-18T04:12:33.633Z,7.10
2023-03-18T04:15:07.109Z,6.87
2023-03-18T04:17:37.622Z,5.60
2023-03-18T04:20:09.193Z,7.07
2023-03-18T04:22:39.857Z,7.63
2023-03-18T04:25:11.417Z,6.97
2023-03-18T04:27:42.447Z,6.40
2023-03-18T04:30:16.332Z,6.33
2023-03-18T04:32:47.307Z,7.57
2023-03-18T04:35:18.908Z,6.43
2023-03-18T04:37:49.580Z,7.10
2023-03-18T04:40:20.391Z,7.93
2023-03-18T04:42:50.138Z,7.57
2023-03-18T04:45:23.230Z,7.27
2023-03-18T04:47:54.025Z,6.47
2023-03-18T04:50:24.375Z,7.03
2023-03-18T04:52:54.836Z,7.53
2023-03-18T04:55:25.344Z,6.90
2023-03-18T04:57:56.387Z,6.90
2023-03-18T05:00:29.902Z,6.90
2023-03-18T05:03:07.762Z,7.27
2023-03-18T05:05:39.931Z,6.90
2023-03-18T05:08:10.657Z,7.10
2023-03-18T05:10:42.055Z,9.43
2023-03-18T05:13:13.178Z,8.37
2023-03-18T05:15:44.763Z,9.63
2023-03-18T05:18:17.394Z,7.33
2023-03-18T05:20:48.381Z,7.37
2023-03-18T05:23:18.383Z,9.13
2023-03-18T05:25:52.097Z,7.60
2023-03-18T05:28:22.672Z,7.37
2023-03-18T05:30:54.516Z,9.43
2023-03-18T05:33:25.049Z,9.37
2023-03-18T05:35:55.492Z,8.17
2023-03-18T05:38:25.802Z,8.60
2023-03-18T05:40:56.432Z,9.17
2023-03-18T05:43:27.070Z,8.50
2023-03-18T05:45:58.820Z,7.43
2023-03-18T05:48:28.888Z,9.17
2023-03-18T05:50:59.309Z,8.87
2023-03-18T05:53:29.536Z,8.80
2023-03-18T05:56:01.673Z,8.90
2023-03-18T05:58:31.832Z,7.50
2023-03-18T06:01:03.452Z,7.80
2023-03-18T06:03:34.979Z,9.20
2023-03-18T06:06:05.466Z,7.87
2023-03-18T06:08:35.487Z,9.30
2023-03-18T06:11:05.920Z,9.07
2023-03-18T06:13:36.027Z,8.93
2023-03-18T06:16:09.073Z,8.23
2023-03-18T06:18:39.293Z,8.43
2023-03-18T06:21:11.394Z,8.70
2023-03-18T06:23:41.510Z,7.70
2023-03-18T06:26:11.909Z,8.20
2023-03-18T06:28:41.854Z,8.30
2023-03-18T06:31:14.506Z,8.17
2023-03-18T06:33:44.105Z,8.07
2023-03-18T06:36:16.934Z,8.90
2023-03-18T06:38:47.881Z,9.10
2023-03-18T06:41:18.486Z,9.47
2023-03-18T06:43:50.842Z,8.40
2023-03-18T06:46:24.427Z,8.00
2023-03-18T06:48:54.890Z,8.20
2023-03-18T06:51:25.221Z,8.40
2023-03-18T06:53:56.010Z,8.50
2023-03-18T06:56:26.172Z,8.17
2023-03-18T06:58:56.822Z,9.00
2023-03-18T07:01:30.404Z,8.07
2023-03-18T07:04:01.188Z,8.43
2023-03-18T07:06:32.535Z,8.17
2023-03-18T07:09:02.908Z,7.57
2023-03-18T07:11:33.087Z,8.20
2023-03-18T07:14:02.965Z,7.77
2023-03-18T07:16:34.884Z,7.20
2023-03-18T07:19:04.796Z,8.20
2023-03-18T07:21:35.828Z,8.97
2023-03-18T07:24:06.057Z,8.23
2023-03-18T07:26:38.079Z,8.47
2023-03-18T07:29:08.642Z,9.17
2023-03-18T07:31:40.447Z,8.27
2023-03-18T07:34:10.693Z,8.27
2023-03-18T07:36:40.571Z,7.93
2023-03-18T07:39:11.592Z,9.13
2023-03-18T07:41:41.914Z,7.70
2023-03-18T07:44:12.679Z,8.80
2023-03-18T07:46:45.379Z,8.43
2023-03-18T07:49:16.093Z,8.27
2023-03-18T07:51:46.797Z,7.50
2023-03-18T07:54:18.303Z,8.00
2023-03-18T07:56:49.107Z,7.57
2023-03-18T07:59:19.564Z,8.50
2023-03-18T08:01:51.334Z,7.90
2023-03-18T08:04:22.144Z,7.83
2023-03-18T08:06:53.193Z,8.97
2023-03-18T08:09:23.423Z,8.20
2023-03-18T08:11:54.018Z,8.67
2023-03-18T08:14:24.147Z,9.03
2023-03-18T08:16:55.979Z,8.07
2023-03-18T08:19:27.440Z,8.27
2023-03-18T08:21:57.746Z,8.10
2023-03-18T08:24:28.518Z,9.00
2023-03-18T08:26:58.801Z,8.57
2023-03-18T08:29:29.070Z,7.10
2023-03-18T08:32:01.787Z,7.67
2023-03-18T08:34:32.334Z,8.03
2023-03-18T08:37:02.878Z,10.00
2023-03-18T08:39:32.836Z,8.40
2023-03-18T08:42:05.581Z,8.10
2023-03-18T08:44:35.872Z,7.83
2023-03-18T08:47:08.548Z,6.90
2023-03-18T08:49:39.050Z,9.00
2023-03-18T08:52:10.902Z,8.33
2023-03-18T08:54:41.408Z,8.10
2023-03-18T08:57:12.153Z,8.43
2023-03-18T08:59:42.057Z,7.00
2023-03-18T09:02:18.702Z,8.00
2023-03-18T09:04:49.553Z,8.00
2023-03-18T09:07:19.495Z,7.07
2023-03-18T09:09:49.680Z,7.57
2023-03-18T09:12:20.164Z,8.33
2023-03-18T09:14:50.067Z,7.73
2023-03-18T09:17:31.661Z,7.20
2023-03-18T09:20:11.973Z,7.57
2023-03-18T09:22:43.703Z,7.87
2023-03-18T09:25:14.030Z,7.20
2023-03-18T09:27:44.617Z,8.20
2023-03-18T09:30:15.930Z,7.60
2023-03-18T09:32:47.858Z,7.63
2023-03-18T09:35:17.891Z,7.70
2023-03-18T09:37:48.869Z,8.20
2023-03-18T09:40:23.600Z,8.30
2023-03-18T09:42:59.946Z,9.03
2023-03-18T09:45:33.843Z,8.73
2023-03-18T09:48:39.967Z,8.30
2023-03-18T09:51:20.791Z,7.40
2023-03-18T09:53:53.805Z,6.43
2023-03-18T09:56:26.502Z,7.47
2023-03-18T09:58:59.968Z,8.90
2023-03-18T10:01:31.317Z,7.47
2023-03-18T10:04:05.355Z,8.87
2023-03-18T10:06:38.724Z,8.43
2023-03-18T10:09:12.159Z,7.50
2023-03-18T10:11:44.487Z,7.97
2023-03-18T10:14:36.437Z,7.87
2023-03-18T10:17:15.106Z,8.10
2023-03-18T10:19:52.289Z,8.13
2023-03-18T10:22:47.746Z,8.43
2023-03-18T10:25:23.899Z,6.97
2023-03-18T10:28:04.170Z,8.67
2023-03-18T10:30:44.533Z,8.07
2023-03-18T10:33:19.837Z,7.53
2023-03-18T10:35:53.912Z,7.37
2023-03-18T10:38:29.201Z,8.07
2023-03-18T10:41:02.023Z,9.40
2023-03-18T10:43:33.877Z,8.07
2023-03-18T10:46:05.253Z,8.77
2023-03-18T10:48:37.988Z,9.70
2023-03-18T10:51:14.291Z,8.30
2023-03-18T10:53:51.470Z,8.30
2023-03-18T10:56:22.781Z,8.73
2023-03-18T10:58:54.026Z,8.37
2023-03-18T11:01:25.586Z,7.80
2023-03-18T11:04:01.632Z,9.53
2023-03-18T11:06:41.828Z,8.70
2023-03-18T11:09:15.540Z,9.40
2023-03-18T11:11:46.660Z,9.17
2023-03-18T11:14:20.010Z,8.63
2023-03-18T11:16:58.159Z,8.87
2023-03-18T11:19:32.610Z,9.10
2023-03-18T11:22:11.941Z,9.80
2023-03-18T11:24:46.874Z,9.93
2023-03-18T11:27:30.516Z,8.70
2023-03-18T11:30:02.208Z,9.20
2023-03-18T11:32:37.688Z,8.93
2023-03-18T11:35:09.568Z,8.87
2023-03-18T11:37:45.358Z,9.30
2023-03-18T11:40:26.165Z,8.60
2023-03-18T11:42:59.092Z,9.47
2023-03-18T11:45:55.857Z,9.27
2023-03-18T11:48:37.190Z,10.03
2023-03-18T11:51:25.186Z,8.80
2023-03-18T11:54:23.275Z,9.83
2023-03-18T11:56:59.581Z,10.40
2023-03-18T11:59:39.314Z,10.43
2023-03-18T12:02:27.766Z,9.10
2023-03-18T12:05:30.130Z,9.67
2023-03-18T12:08:05.710Z,9.20
2023-03-18T12:10:37.981Z,9.70
2023-03-18T12:13:23.890Z,10.67
2023-03-18T12:16:04.833Z,8.93
2023-03-18T12:18:44.514Z,9.47
2023-03-18T12:21:43.223Z,9.73
2023-03-18T12:24:34.267Z,9.80
2023-03-18T12:27:11.313Z,9.93
2023-03-18T12:30:00.947Z,10.13
2023-03-18T12:32:33.015Z,10.20
2023-03-18T12:35:24.515Z,8.97
2023-03-18T12:38:09.956Z,10.20
2023-03-18T12:40:46.893Z,10.60
2023-03-18T12:43:38.302Z,11.70
2023-03-18T12:46:24.163Z,10.40
2023-03-18T12:49:01.899Z,10.03
2023-03-18T12:51:43.176Z,11.87
2023-03-18T12:54:20.816Z,12.60
2023-03-18T12:56:53.290Z,9.87
2023-03-18T12:59:29.918Z,12.77
2023-03-18T13:02:18.427Z,13.20
2023-03-18T13:04:56.050Z,11.70
2023-03-18T13:07:31.350Z,11.10
2023-03-18T13:10:09.653Z,10.70
2023-03-18T13:12:41.877Z,9.93
2023-03-18T13:15:19.866Z,12.40
2023-03-18T13:17:53.020Z,10.73
2023-03-18T13:20:25.969Z,12.07
2023-03-18T13:23:21.403Z,11.80
2023-03-18T13:26:02.081Z,11.50
2023-03-18T13:28:48.852Z,13.00
2023-03-18T13:31:26.126Z,13.20
2023-03-18T13:34:40.488Z,11.57
2023-03-18T13:37:34.887Z,13.20
2023-03-18T13:40:32.086Z,13.10
2023-03-18T13:43:03.644Z,13.80
2023-03-18T13:45:39.284Z,14.73
2023-03-18T13:48:14.936Z,14.00
2023-03-18T13:50:46.901Z,13.03
2023-03-18T13:53:36.029Z,13.23
2023-03-18T13:56:08.185Z,11.67
2023-03-18T13:58:48.892Z,12.00
2023-03-18T14:01:33.087Z,12.80
2023-03-18T14:04:35.487Z,11.10
2023-03-18T14:07:17.945Z,11.50
2023-03-18T14:10:29.086Z,12.13
2023-03-18T14:13:00.699Z,11.20
2023-03-18T14:15:39.855Z,12.50
2023-03-18T14:18:27.648Z,12.60
2023-03-18T14:21:07.738Z,12.47
2023-03-18T14:23:43.283Z,13.47
2023-03-18T14:26:25.295Z,13.83
2023-03-18T14:29:11.548Z,14.33
2023-03-18T14:32:00.371Z,12.73
2023-03-18T14:34:33.535Z,13.17
2023-03-18T14:37:21.977Z,12.80
2023-03-18T14:39:55.685Z,12.47
2023-03-18T14:42:50.277Z,14.63
2023-03-18T14:45:27.744Z,13.70
2023-03-18T14:48:00.299Z,13.60
2023-03-18T14:50:43.659Z,12.20
2023-03-18T14:53:20.592Z,12.77
2023-03-18T14:55:51.709Z,12.67
2023-03-18T14:58:24.329Z,12.43
2023-03-18T15:00:57.040Z,14.00
2023-03-18T15:03:30.120Z,13.00
2023-03-18T15:06:01.849Z,12.53
2023-03-18T15:08:46.792Z,12.73
2023-03-18T15:11:18.572Z,12.37
2023-03-18T15:13:50.189Z,13.27
2023-03-18T15:16:21.849Z,13.67
2023-03-18T15:18:55.111Z,13.17
2023-03-18T15:21:28.944Z,12.20
2023-03-18T15:24:01.048Z,12.67
2023-03-18T15:26:36.632Z,13.00
2023-03-18T15:29:28.845Z,12.40
2023-03-18T15:32:10.846Z,12.90
2023-03-18T15:34:41.892Z,11.53
2023-03-18T15:37:40.738Z,13.53
2023-03-18T15:40:29.961Z,11.23
2023-03-18T15:43:05.615Z,11.60
2023-03-18T15:45:37.169Z,11.50
2023-03-18T15:48:09.960Z,11.30
2023-03-18T15:50:55.687Z,12.27
2023-03-18T15:53:28.490Z,11.10
2023-03-18T15:56:00.666Z,11.07
2023-03-18T15:58:38.120Z,12.30
2023-03-18T16:01:16.883Z,11.83
2023-03-18T16:03:48.633Z,11.80
2023-03-18T16:06:20.148Z,12.30
2023-03-18T16:08:50.893Z,12.53
2023-03-18T16:11:24.919Z,11.57
2023-03-18T16:13:57.543Z,11.83
2023-03-18T16:16:35.335Z,12.57
2023-03-18T16:19:08.744Z,12.43
2023-03-18T16:21:39.783Z,12.40
2023-03-18T16:24:11.300Z,11.37
2023-03-18T16:26:41.622Z,12.13
2023-03-18T16:29:25.965Z,12.73
2023-03-18T16:31:58.960Z,11.27
2023-03-18T16:34:30.207Z,12.00
2023-03-18T16:37:01.380Z,12.27
2023-03-18T16:39:37.622Z,11.10
2023-03-18T16:42:10.980Z,10.60
2023-03-18T16:44:42.456Z,11.00
2023-03-18T16:47:23.659Z,11.93
2023-03-18T16:49:54.166Z,11.77
2023-03-18T16:52:25.540Z,10.23
2023-03-18T16:55:12.415Z,11.43
2023-03-18T16:57:53.674Z,12.60
2023-03-18T17:00:26.021Z,12.00
2023-03-18T17:02:58.037Z,11.40
2023-03-18T17:05:28.103Z,10.93
2023-03-18T17:07:58.787Z,10.63
2023-03-18T17:10:29.723Z,11.17
2023-03-18T17:13:06.052Z,10.73
2023-03-18T17:15:38.460Z,9.20
2023-03-18T17:18:15.809Z,10.93
2023-03-18T17:20:47.821Z,10.57
2023-03-18T17:23:20.546Z,10.10
2023-03-18T17:25:52.808Z,10.53
2023-03-18T17:28:33.182Z,12.40
2023-03-18T17:31:03.341Z,11.80
2023-03-18T17:33:38.243Z,14.43
2023-03-18T17:36:09.563Z,16.90
2023-03-18T17:38:39.538Z,16.77
2023-03-18T17:41:17.648Z,18.90
2023-03-18T17:43:48.030Z,19.30
2023-03-18T17:46:17.866Z,21.40
2023-03-18T17:48:50.073Z,22.33
2023-03-18T17:51:21.723Z,22.93
2023-03-18T17:53:52.968Z,21.70
2023-03-18T17:56:23.238Z,19.60
2023-03-18T17:58:54.637Z,20.43
2023-03-18T18:01:29.398Z,21.00
2023-03-18T18:04:03.988Z,22.47
2023-03-18T18:06:37.531Z,19.60
2023-03-18T18:09:09.171Z,23.10
2023-03-18T18:11:44.384Z,21.00
2023-03-18T18:14:21.276Z,22.87
2023-03-18T18:16:52.322Z,20.60
2023-03-18T18:19:24.444Z,20.07
2023-03-18T18:21:55.555Z,21.17
2023-03-18T18:24:28.242Z,21.07
2023-03-18T18:26:59.172Z,21.70
2023-03-18T18:29:30.539Z,22.30
2023-03-18T18:32:00.950Z,23.07
2023-03-18T18:34:33.165Z,19.47
2023-03-18T18:37:03.691Z,20.10
2023-03-18T18:39:34.021Z,19.17
2023-03-18T18:42:04.520Z,16.60
2023-03-18T18:44:36.067Z,17.60
2023-03-18T18:47:13.447Z,15.63
2023-03-18T18:49:44.859Z,17.50
2023-03-18T18:52:17.492Z,15.80
2023-03-18T18:54:49.091Z,16.67
2023-03-18T18:57:26.902Z,14.37
2023-03-18T18:59:59.427Z,16.20
2023-03-18T19:02:34.282Z,16.33
2023-03-18T19:05:08.366Z,13.90
2023-03-18T19:07:42.101Z,14.00
2023-03-18T19:10:15.756Z,15.90
2023-03-18T19:12:49.315Z,16.40
2023-03-18T19:15:22.258Z,14.70
2023-03-18T19:17:53.631Z,17.37
2023-03-18T19:20:33.034Z,16.63
2023-03-18T19:23:03.962Z,18.83
2023-03-18T19:25:35.789Z,21.77
2023-03-18T19:28:07.068Z,20.60
2023-03-18T19:30:39.193Z,20.13
2023-03-18T19:33:21.290Z,17.53
2023-03-18T19:35:54.935Z,14.67
2023-03-18T19:38:25.961Z,15.43
2023-03-18T19:40:59.279Z,15.90
2023-03-18T19:43:29.945Z,15.20
2023-03-18T19:46:01.618Z,14.53
2023-03-18T19:48:33.490Z,14.00
2023-03-18T19:51:06.772Z,13.43
2023-03-18T19:53:39.555Z,15.10
2023-03-18T19:56:24.519Z,13.00
2023-03-18T19:58:56.080Z,12.83
2023-03-18T20:01:29.449Z,13.20
2023-03-18T20:04:01.525Z,15.33
2023-03-18T20:06:33.195Z,13.93
2023-03-18T20:09:03.680Z,13.20
2023-03-18T20:11:35.845Z,14.77
2023-03-18T20:14:05.707Z,14.30
2023-03-18T20:16:37.305Z,14.10
2023-03-18T20:19:08.591Z,13.77
2023-03-18T20:21:43.884Z,13.73
2023-03-18T20:24:16.434Z,13.20
2023-03-18T20:27:02.126Z,11.80
2023-03-18T20:29:34.708Z,13.70
2023-03-18T20:32:06.009Z,12.63
2023-03-18T20:34:39.196Z,14.60
2023-03-18T20:37:22.093Z,12.27
2023-03-18T20:39:54.224Z,15.33
2023-03-18T20:42:27.497Z,15.50
2023-03-18T20:44:58.124Z,16.40
2023-03-18T20:47:28.974Z,14.00
2023-03-18T20:49:59.893Z,15.40
2023-03-18T20:52:32.453Z,17.07
2023-03-18T20:55:05.170Z,15.93
2023-03-18T20:57:36.780Z,14.97
2023-03-18T21:00:10.562Z,14.63
2023-03-18T21:02:44.631Z,13.57
2023-03-18T21:05:15.992Z,14.93
2023-03-18T21:07:49.132Z,12.27
2023-03-18T21:10:22.153Z,15.07
2023-03-18T21:12:53.840Z,13.10
2023-03-18T21:15:26.599Z,12.87
2023-03-18T21:17:57.607Z,13.20
2023-03-18T21:20:30.216Z,13.50
2023-03-18T21:23:03.155Z,12.10
2023-03-18T21:25:35.074Z,12.23
2023-03-18T21:28:06.455Z,12.00
2023-03-18T21:30:37.247Z,12.57
2023-03-18T21:33:21.232Z,12.50
2023-03-18T21:35:53.419Z,12.10
2023-03-18T21:38:26.451Z,12.47
2023-03-18T21:40:57.874Z,13.83
2023-03-18T21:43:33.746Z,13.20
2023-03-18T21:46:03.866Z,13.87
2023-03-18T21:48:33.958Z,11.60
2023-03-18T21:51:03.891Z,12.30
2023-03-18T21:53:35.487Z,12.57
2023-03-18T21:56:05.858Z,13.03
2023-03-18T21:58:36.798Z,15.40
2023-03-18T22:01:08.061Z,14.57
2023-03-18T22:03:38.339Z,12.53
2023-03-18T22:06:09.560Z,13.30
2023-03-18T22:08:41.376Z,14.40
2023-03-18T22:11:21.193Z,12.17
2023-03-18T22:13:51.989Z,14.33
2023-03-18T22:16:22.912Z,13.17
2023-03-18T22:18:53.315Z,12.30
2023-03-18T22:21:26.337Z,13.87
2023-03-18T22:24:00.468Z,12.73
2023-03-18T22:26:30.799Z,12.60
2023-03-18T22:29:00.979Z,13.73
2023-03-18T22:31:32.113Z,13.77
2023-03-18T22:34:02.887Z,12.03
2023-03-18T22:36:32.708Z,15.50
2023-03-18T22:39:03.814Z,17.07
2023-03-18T22:41:33.810Z,17.40
2023-03-18T22:44:04.272Z,18.70
2023-03-18T22:46:34.353Z,17.83
2023-03-18T22:49:08.334Z,18.37
2023-03-18T22:51:41.302Z,17.00
2023-03-18T22:54:19.320Z,19.10
2023-03-18T22:56:51.037Z,16.97
2023-03-18T22:59:21.547Z,17.10
2023-03-18T23:01:52.124Z,18.33
2023-03-18T23:04:25.117Z,15.80
2023-03-18T23:06:56.602Z,17.80
2023-03-18T23:09:28.520Z,14.77
2023-03-18T23:11:59.792Z,17.17
2023-03-18T23:14:30.282Z,16.53
2023-03-18T23:17:01.369Z,15.53
2023-03-18T23:19:32.410Z,15.80
2023-03-18T23:22:03.454Z,15.80
2023-03-18T23:24:36.381Z,15.70
2023-03-18T23:27:08.712Z,14.30
2023-03-18T23:29:41.641Z,15.30
2023-03-18T23:32:12.332Z,15.87
2023-03-18T23:34:43.682Z,15.73
2023-03-18T23:37:15.743Z,17.70
2023-03-18T23:39:47.520Z,17.17
2023-03-18T23:42:18.785Z,16.30
2023-03-18T23:44:49.380Z,15.00
2023-03-18T23:47:19.735Z,15.50
2023-03-18T23:49:50.374Z,15.00
2023-03-18T23:52:21.346Z,16.03
2023-03-18T23:54:53.299Z,16.03
2023-03-18T23:57:24.126Z,17.43
2023-03-18T23:59:57.062Z,15.20
